createdAt,value
2022-09-06T00:00:59.976Z,99687.59
2022-09-06T00:03:29.863Z,99699.78
2022-09-06T00:05:56.746Z,99692.56
2022-09-06T00:08:23.791Z,99689.22
2022-09-06T00:11:01.063Z,99687.59
2022-09-06T00:13:28.416Z,99687.81
2022-09-06T00:15:55.373Z,99695.06
2022-09-06T00:18:22.422Z,99697.69
2022-09-06T00:20:49.388Z,99687.69
2022-09-06T00:23:16.273Z,99700.16
2022-09-06T00:25:43.200Z,99701.94
2022-09-06T00:28:10.061Z,99697.47
2022-09-06T00:30:36.949Z,99691.50
2022-09-06T00:33:04.039Z,99694.13
2022-09-06T00:35:30.955Z,99695.56
2022-09-06T00:37:59.010Z,99695.88
2022-09-06T00:40:26.609Z,99700.44
2022-09-06T00:42:53.528Z,99698.69
2022-09-06T00:45:20.449Z,99695.47
2022-09-06T00:47:47.436Z,99694.19
2022-09-06T00:50:15.255Z,99672.31
2022-09-06T00:52:42.417Z,99693.59
2022-09-06T00:55:09.530Z,99695.84
2022-09-06T00:57:36.433Z,99703.91
2022-09-06T01:00:04.927Z,99691.66
2022-09-06T01:02:31.893Z,99704.06
2022-09-06T01:04:58.884Z,99696.19
2022-09-06T01:07:37.716Z,99703.13
2022-09-06T01:10:30.616Z,99712.31
2022-09-06T01:13:00.203Z,99698.81
2022-09-06T01:16:11.518Z,99698.66
2022-09-06T01:18:56.843Z,99692.56
2022-09-06T01:21:58.157Z,99694.34
2022-09-06T01:24:36.966Z,99693.41
2022-09-06T01:27:34.771Z,99686.94
2022-09-06T01:30:06.667Z,99689.53
2022-09-06T01:32:51.942Z,99673.28
2022-09-06T01:35:48.080Z,99696.00
2022-09-06T01:38:15.035Z,99648.38
2022-09-06T01:40:41.914Z,99694.88
2022-09-06T01:43:11.259Z,99686.53
2022-09-06T01:45:44.036Z,99680.25
2022-09-06T01:48:48.481Z,99682.50
2022-09-06T01:51:21.771Z,99677.19
2022-09-06T01:53:55.881Z,99688.47
2022-09-06T01:56:28.645Z,99684.44
2022-09-06T01:59:13.183Z,99682.03
2022-09-06T02:02:01.751Z,99674.47
2022-09-06T02:04:49.465Z,99675.91
2022-09-06T02:07:25.619Z,99677.38
2022-09-06T02:10:00.501Z,99679.63
2022-09-06T02:12:27.951Z,99676.25
2022-09-06T02:15:07.717Z,99679.78
2022-09-06T02:17:35.745Z,99666.75
2022-09-06T02:20:07.267Z,99692.81
2022-09-06T02:22:37.716Z,99675.09
2022-09-06T02:25:05.371Z,99643.75
2022-09-06T02:27:32.268Z,99672.84
2022-09-06T02:29:59.154Z,99667.72
2022-09-06T02:32:26.397Z,99626.03
2022-09-06T02:34:54.620Z,99648.72
2022-09-06T02:37:21.473Z,99662.91
2022-09-06T02:39:48.398Z,99662.41
2022-09-06T02:42:15.667Z,99665.78
2022-09-06T02:44:42.520Z,99663.34
2022-09-06T02:47:09.419Z,99648.72
2022-09-06T02:49:36.364Z,99666.28
2022-09-06T02:52:03.420Z,99662.41
2022-09-06T02:54:31.273Z,99669.31
2022-09-06T02:56:58.203Z,99666.91
2022-09-06T02:59:25.073Z,99664.81
2022-09-06T03:01:51.926Z,99665.47
2022-09-06T03:04:18.869Z,99671.56
2022-09-06T03:06:45.754Z,99673.03
2022-09-06T03:09:12.629Z,99671.72
2022-09-06T03:11:39.551Z,99673.97
2022-09-06T03:14:06.514Z,99674.63
2022-09-06T03:16:33.514Z,99667.06
2022-09-06T03:19:00.454Z,99664.94
2022-09-06T03:21:27.338Z,99672.66
2022-09-06T03:23:54.804Z,99662.69
2022-09-06T03:26:21.799Z,99669.59
2022-09-06T03:28:49.701Z,99665.88
2022-09-06T03:31:16.625Z,99659.16
2022-09-06T03:33:43.572Z,99661.06
2022-09-06T03:36:10.486Z,99666.34
2022-09-06T03:38:37.376Z,99664.41
2022-09-06T03:41:04.568Z,99660.09
2022-09-06T03:43:32.392Z,99655.94
2022-09-06T03:46:00.033Z,99635.19
2022-09-06T03:48:28.825Z,99656.94
2022-09-06T03:50:56.670Z,99661.91
2022-09-06T03:53:24.223Z,99662.25
2022-09-06T03:55:52.517Z,99674.47
2022-09-06T03:58:20.521Z,99671.91
2022-09-06T04:00:47.674Z,99667.06
2022-09-06T04:03:14.936Z,99676.84
2022-09-06T04:05:46.331Z,99677.13
2022-09-06T04:08:13.832Z,99677.59
2022-09-06T04:10:42.271Z,99679.75
2022-09-06T04:13:09.258Z,99674.03
2022-09-06T04:15:37.172Z,99673.81
2022-09-06T04:18:08.978Z,99671.16
2022-09-06T04:20:36.530Z,99668.50
2022-09-06T04:23:04.099Z,99669.72
2022-09-06T04:25:31.109Z,99674.81
2022-09-06T04:27:58.227Z,99678.28
2022-09-06T04:30:25.309Z,99675.06
2022-09-06T04:32:52.526Z,99676.66
2022-09-06T04:35:19.492Z,99673.72
2022-09-06T04:37:46.507Z,99671.28
2022-09-06T04:40:13.675Z,99672.16
2022-09-06T04:42:40.739Z,99673.19
2022-09-06T04:45:08.264Z,99685.72
2022-09-06T04:47:35.563Z,99684.47
2022-09-06T04:50:02.507Z,99676.97
2022-09-06T04:52:30.318Z,99676.88
2022-09-06T04:54:57.688Z,99674.81
2022-09-06T04:57:24.882Z,99669.44
2022-09-06T04:59:51.855Z,99677.69
2022-09-06T05:02:18.929Z,99678.63
2022-09-06T05:04:46.057Z,99678.09
2022-09-06T05:07:12.998Z,99675.94
2022-09-06T05:09:40.116Z,99675.81
2022-09-06T05:12:08.022Z,99679.25
2022-09-06T05:14:35.059Z,99677.19
2022-09-06T05:17:02.353Z,99647.75
2022-09-06T05:19:29.281Z,99673.41
2022-09-06T05:21:56.509Z,99671.34
2022-09-06T05:24:23.614Z,99673.97
2022-09-06T05:26:50.739Z,99676.16
2022-09-06T05:29:17.679Z,99681.22
2022-09-06T05:31:45.018Z,99683.00
2022-09-06T05:34:13.593Z,99681.28
2022-09-06T05:36:42.128Z,99689.75
2022-09-06T05:39:09.348Z,99688.00
2022-09-06T05:41:36.308Z,99656.59
2022-09-06T05:44:03.849Z,99686.09
2022-09-06T05:46:31.036Z,99685.06
2022-09-06T05:49:07.986Z,99672.09
2022-09-06T05:51:35.062Z,99687.09
2022-09-06T05:54:02.106Z,99685.44
2022-09-06T05:56:29.337Z,99682.06
2022-09-06T05:58:56.439Z,99692.94
2022-09-06T06:01:29.216Z,99667.69
2022-09-06T06:04:00.846Z,99679.59
2022-09-06T06:06:29.607Z,99681.56
2022-09-06T06:08:56.926Z,99679.06
2022-09-06T06:11:24.388Z,99680.16
2022-09-06T06:13:51.921Z,99656.47
2022-09-06T06:16:20.594Z,99681.09
2022-09-06T06:18:52.004Z,99654.25
2022-09-06T06:21:22.737Z,99669.91
2022-09-06T06:23:51.360Z,99674.06
2022-09-06T06:26:18.493Z,99674.97
2022-09-06T06:28:45.708Z,99676.81
2022-09-06T06:31:13.135Z,99668.34
2022-09-06T06:33:40.383Z,99663.38
2022-09-06T06:36:08.194Z,99678.91
2022-09-06T06:38:37.625Z,99674.94
2022-09-06T06:41:06.983Z,99677.56
2022-09-06T06:43:37.952Z,99685.72
2022-09-06T06:46:15.469Z,99678.84
2022-09-06T06:48:43.765Z,99674.03
2022-09-06T06:51:20.020Z,99668.06
2022-09-06T06:53:47.656Z,99671.91
2022-09-06T06:56:21.531Z,99670.66
2022-09-06T06:58:49.938Z,99667.00
2022-09-06T07:01:17.543Z,99685.81
2022-09-06T07:03:44.734Z,99682.13
2022-09-06T07:06:12.498Z,99700.19
2022-09-06T07:08:40.468Z,99690.66
2022-09-06T07:11:07.949Z,99690.19
2022-09-06T07:13:35.117Z,99682.19
2022-09-06T07:16:08.847Z,99686.88
2022-09-06T07:18:36.439Z,99675.81
2022-09-06T07:24:06.967Z,99698.41
2022-09-06T07:26:34.975Z,99680.41
2022-09-06T07:29:03.488Z,99704.09
2022-09-06T07:34:20.699Z,99706.66
2022-09-06T07:36:48.462Z,99701.13
2022-09-06T07:39:15.589Z,99698.13
2022-09-06T07:41:43.087Z,99707.66
2022-09-06T07:44:10.380Z,99708.63
2022-09-06T07:46:37.470Z,99702.22
2022-09-06T07:49:05.469Z,99716.28
2022-09-06T07:51:32.607Z,99699.06
2022-09-06T07:54:26.436Z,99691.34
2022-09-06T07:56:46.876Z,99713.94
2022-09-06T07:59:13.875Z,99708.78
2022-09-06T08:01:40.960Z,99703.75
2022-09-06T08:04:12.941Z,99704.56
2022-09-06T08:09:35.474Z,99707.19
2022-09-06T08:12:08.656Z,99706.03
2022-09-06T08:14:35.729Z,99698.59
2022-09-06T08:19:29.785Z,99697.47
2022-09-06T08:21:56.902Z,99710.06
2022-09-06T08:24:23.853Z,99678.16
2022-09-06T08:26:50.917Z,99697.59
2022-09-06T08:29:18.983Z,99696.94
2022-09-06T08:31:46.148Z,99694.00
2022-09-06T08:34:14.328Z,99697.34
2022-09-06T08:36:41.606Z,99696.78
2022-09-06T08:39:11.679Z,99681.09
2022-09-06T08:41:47.786Z,99681.03
2022-09-06T08:47:07.156Z,99675.56
2022-09-06T08:49:37.039Z,99652.41
2022-09-06T08:52:24.145Z,99668.16
2022-09-06T08:55:09.828Z,99668.31
2022-09-06T08:58:10.413Z,99659.97
2022-09-06T09:00:37.458Z,99653.78
2022-09-06T09:03:07.194Z,99653.25
2022-09-06T09:05:35.036Z,99644.78
2022-09-06T09:08:17.904Z,99645.69
2022-09-06T09:10:48.715Z,99640.88
2022-09-06T09:13:40.752Z,99636.75
2022-09-06T09:16:07.849Z,99631.03
2022-09-06T09:18:40.390Z,99608.94
2022-09-06T09:21:07.364Z,99620.03
2022-09-06T09:23:34.461Z,99621.19
2022-09-06T09:26:12.430Z,99623.81
2022-09-06T09:28:39.363Z,99622.41
2022-09-06T09:31:07.349Z,99620.34
2022-09-06T09:33:36.908Z,99613.44
2022-09-06T09:36:13.266Z,99615.63
2022-09-06T09:38:44.614Z,99611.06
2022-09-06T09:41:24.227Z,99601.28
2022-09-06T09:44:03.698Z,99610.09
2022-09-06T09:46:33.341Z,99604.16
2022-09-06T09:49:04.535Z,99564.84
2022-09-06T09:51:33.154Z,99578.56
2022-09-06T09:54:10.756Z,99579.44
2022-09-06T09:56:49.827Z,99598.78
2022-09-06T09:59:22.662Z,99600.31
2022-09-06T10:01:49.866Z,99596.25
2022-09-06T10:04:47.212Z,99589.88
2022-09-06T10:07:21.531Z,99595.66
2022-09-06T10:09:57.711Z,99594.25
2022-09-06T10:12:31.711Z,99597.28
2022-09-06T10:15:01.251Z,99593.88
2022-09-06T10:17:34.622Z,99594.50
2022-09-06T10:20:11.698Z,99584.88
2022-09-06T10:22:44.103Z,99581.50
2022-09-06T10:25:29.710Z,99587.19
2022-09-06T10:28:33.123Z,99568.03
2022-09-06T10:31:12.392Z,99573.72
2022-09-06T10:34:16.882Z,99576.19
2022-09-06T10:37:01.706Z,99545.16
2022-09-06T10:39:50.379Z,99562.09
2022-09-06T10:42:39.202Z,99574.31
2022-09-06T10:45:21.918Z,99569.56
2022-09-06T10:48:02.974Z,99570.81
2022-09-06T10:50:44.100Z,99569.31
2022-09-06T10:53:14.217Z,99564.63
2022-09-06T10:55:41.244Z,99565.44
2022-09-06T10:58:18.273Z,99542.34
2022-09-06T11:00:47.495Z,99570.75
2022-09-06T11:06:10.396Z,99529.91
2022-09-06T11:09:02.857Z,99565.44
2022-09-06T11:11:51.359Z,99565.16
2022-09-06T11:14:18.325Z,99557.38
2022-09-06T11:17:28.575Z,99561.50
2022-09-06T11:20:06.951Z,99557.41
2022-09-06T11:22:59.532Z,99554.44
2022-09-06T11:26:14.654Z,99550.22
2022-09-06T11:29:04.855Z,99540.75
2022-09-06T11:34:31.441Z,99534.03
2022-09-06T11:37:02.686Z,99542.34
2022-09-06T11:42:45.596Z,99529.34
2022-09-06T11:45:16.135Z,99538.03
2022-09-06T11:47:48.243Z,99538.09
2022-09-06T11:50:21.395Z,99523.56
2022-09-06T11:53:07.365Z,99539.03
2022-09-06T11:55:38.211Z,99537.06
2022-09-06T11:58:12.279Z,99527.69
2022-09-06T12:00:39.249Z,99523.31
2022-09-06T12:06:19.217Z,99521.72
2022-09-06T12:08:50.236Z,99523.03
2022-09-06T12:11:30.295Z,99516.31
2022-09-06T12:14:03.857Z,99510.88
2022-09-06T12:16:55.712Z,99501.41
2022-09-06T12:19:47.255Z,99498.94
2022-09-06T12:22:29.541Z,99496.19
2022-09-06T12:25:21.032Z,99498.84
2022-09-06T12:27:56.146Z,99499.06
2022-09-06T12:30:43.823Z,99504.59
2022-09-06T12:33:39.428Z,99496.50
2022-09-06T12:36:19.959Z,99494.28
2022-09-06T12:39:09.957Z,99468.63
2022-09-06T12:41:43.296Z,99490.72
2022-09-06T12:44:11.092Z,99505.91
2022-09-06T12:46:40.055Z,99503.69
2022-09-06T12:49:08.879Z,99488.34
2022-09-06T12:51:36.756Z,99484.78
2022-09-06T12:54:22.235Z,99479.75
2022-09-06T12:56:49.589Z,99482.16
2022-09-06T12:59:20.493Z,99485.81
2022-09-06T13:02:08.384Z,99477.97
2022-09-06T13:04:49.602Z,99457.28
2022-09-06T13:07:17.867Z,99481.19
2022-09-06T13:09:47.266Z,99483.22
2022-09-06T13:12:27.483Z,99463.09
2022-09-06T13:14:58.217Z,99443.16
2022-09-06T13:17:26.475Z,99459.59
2022-09-06T13:19:53.682Z,99459.66
2022-09-06T13:22:45.962Z,99451.44
2022-09-06T13:25:21.006Z,99474.44
2022-09-06T13:27:56.581Z,99451.47
2022-09-06T13:30:37.068Z,99459.84
2022-09-06T13:33:05.328Z,99459.56
2022-09-06T13:35:34.573Z,99453.34
2022-09-06T13:38:32.429Z,99461.00
2022-09-06T13:41:12.521Z,99455.16
2022-09-06T13:43:48.795Z,99446.97
2022-09-06T13:46:16.164Z,99453.41
2022-09-06T13:48:44.776Z,99444.34
2022-09-06T13:51:12.092Z,99443.25
2022-09-06T13:53:39.026Z,99440.53
2022-09-06T13:56:08.584Z,99435.38
2022-09-06T13:58:36.387Z,99439.81
2022-09-06T14:01:04.183Z,99433.53
2022-09-06T14:03:31.762Z,99440.69
2022-09-06T14:06:00.371Z,99435.56
2022-09-06T14:08:49.287Z,99441.59
2022-09-06T14:11:17.948Z,99445.56
2022-09-06T14:13:44.921Z,99443.25
2022-09-06T14:16:12.030Z,99451.19
2022-09-06T14:18:39.131Z,99447.25
2022-09-06T14:21:07.262Z,99445.31
2022-09-06T14:23:34.189Z,99434.25
2022-09-06T14:26:02.419Z,99444.16
2022-09-06T14:28:31.163Z,99433.09
2022-09-06T14:30:58.172Z,99435.88
2022-09-06T14:33:25.191Z,99435.13
2022-09-06T14:35:52.398Z,99426.38
2022-09-06T14:38:19.687Z,99416.06
2022-09-06T14:40:46.596Z,99414.06
2022-09-06T14:43:13.610Z,99415.69
2022-09-06T14:45:40.540Z,99424.88
2022-09-06T14:48:07.699Z,99428.84
2022-09-06T14:50:34.589Z,99428.44
2022-09-06T14:53:02.071Z,99426.88
2022-09-06T14:55:30.265Z,99429.66
2022-09-06T14:57:57.950Z,99417.75
2022-09-06T15:00:25.239Z,99433.66
2022-09-06T15:02:52.538Z,99429.31
2022-09-06T15:05:19.434Z,99423.38
2022-09-06T15:07:46.696Z,99421.78
2022-09-06T15:10:13.669Z,99423.00
2022-09-06T15:12:40.528Z,99422.22
2022-09-06T15:15:07.660Z,99426.19
2022-09-06T15:17:35.218Z,99419.06
2022-09-06T15:20:02.322Z,99417.88
2022-09-06T15:22:29.898Z,99412.34
2022-09-06T15:24:56.859Z,99409.97
2022-09-06T15:27:23.806Z,99420.69
2022-09-06T15:29:50.871Z,99418.28
2022-09-06T15:32:17.904Z,99419.91
2022-09-06T15:34:44.862Z,99417.50
2022-09-06T15:37:11.737Z,99414.34
2022-09-06T15:39:38.725Z,99404.03
2022-09-06T15:42:06.046Z,99400.88
2022-09-06T15:44:33.294Z,99398.47
2022-09-06T15:47:00.357Z,99400.47
2022-09-06T15:49:28.873Z,99392.53
2022-09-06T15:51:57.043Z,99385.41
2022-09-06T15:54:42.596Z,99383.44
2022-09-06T15:57:09.545Z,99381.03
2022-09-06T15:59:36.593Z,99378.66
2022-09-06T16:02:03.638Z,99377.47
2022-09-06T16:04:30.538Z,99393.75
2022-09-06T16:06:57.482Z,99389.78
2022-09-06T16:09:24.430Z,99382.22
2022-09-06T16:11:51.305Z,99383.84
2022-09-06T16:14:18.363Z,99379.06
2022-09-06T16:16:45.667Z,99380.66
2022-09-06T16:19:12.761Z,99381.06
2022-09-06T16:21:40.680Z,99380.66
2022-09-06T16:24:09.226Z,99385.81
2022-09-06T16:26:38.418Z,99387.81
2022-09-06T16:29:05.925Z,99379.84
2022-09-06T16:31:40.059Z,99377.09
2022-09-06T16:34:10.549Z,99378.66
2022-09-06T16:36:37.518Z,99371.53
2022-09-06T16:39:04.937Z,99383.84
2022-09-06T16:41:39.578Z,99377.09
2022-09-06T16:44:07.663Z,99372.72
2022-09-06T16:46:34.792Z,99369.94
2022-09-06T16:49:02.969Z,99366.34
2022-09-06T16:51:31.160Z,99363.56
2022-09-06T16:53:58.265Z,99368.34
2022-09-06T16:56:26.735Z,99366.75
2022-09-06T16:58:55.075Z,99362.00
2022-09-06T17:01:22.441Z,99356.81
2022-09-06T17:03:49.795Z,99363.19
2022-09-06T17:06:16.907Z,99362.78
2022-09-06T17:08:44.002Z,99350.88
2022-09-06T17:11:14.791Z,99373.50
2022-09-06T17:13:41.949Z,99378.63
2022-09-06T17:16:27.525Z,99379.41
2022-09-06T17:18:54.565Z,99369.09
2022-09-06T17:21:22.040Z,99379.41
2022-09-06T17:23:49.604Z,99379.03
2022-09-06T17:26:17.543Z,99382.19
2022-09-06T17:28:44.464Z,99381.78
2022-09-06T17:31:12.110Z,99383.34
2022-09-06T17:33:39.135Z,99380.97
2022-09-06T17:36:13.588Z,99388.91
2022-09-06T17:38:41.126Z,99390.88
2022-09-06T17:41:08.150Z,99391.25
2022-09-06T17:43:38.233Z,99397.22
2022-09-06T17:46:05.369Z,99389.69
2022-09-06T17:48:32.331Z,99386.50
2022-09-06T17:51:06.938Z,99390.03
2022-09-06T17:53:34.513Z,99394.78
2022-09-06T17:56:09.119Z,99401.09
2022-09-06T17:58:36.724Z,99393.16
2022-09-06T18:01:08.072Z,99388.38
2022-09-06T18:03:35.095Z,99389.53
2022-09-06T18:06:03.638Z,99391.91
2022-09-06T18:08:30.954Z,99386.72
2022-09-06T18:10:57.913Z,99385.50
2022-09-06T18:13:24.795Z,99395.81
2022-09-06T18:15:51.701Z,99395.00
2022-09-06T18:18:18.629Z,99389.44
2022-09-06T18:20:45.515Z,99384.25
2022-09-06T18:23:12.434Z,99379.09
2022-09-06T18:25:39.337Z,99379.88
2022-09-06T18:28:06.518Z,99386.19
2022-09-06T18:30:33.515Z,99390.09
2022-09-06T18:33:00.452Z,99393.63
2022-09-06T18:35:27.483Z,99395.94
2022-09-06T18:37:54.678Z,99405.03
2022-09-06T18:40:21.592Z,99408.16
2022-09-06T18:42:48.644Z,99410.50
2022-09-06T18:45:15.534Z,99407.72
2022-09-06T18:47:43.686Z,99402.50
2022-09-06T18:50:10.637Z,99401.69
2022-09-06T18:52:38.466Z,99397.69
2022-09-06T18:55:05.966Z,99391.34
2022-09-06T18:57:32.999Z,99385.34
2022-09-06T18:59:59.926Z,99383.28
2022-09-06T19:02:27.953Z,99381.69
2022-09-06T19:04:56.083Z,99387.94
2022-09-06T19:07:23.111Z,99378.38
2022-09-06T19:09:50.133Z,99379.09
2022-09-06T19:12:17.070Z,99382.22
2022-09-06T19:14:44.050Z,99383.38
2022-09-06T19:17:11.048Z,99372.25
2022-09-06T19:19:38.192Z,99374.19
2022-09-06T19:22:05.763Z,99372.56
2022-09-06T19:24:33.682Z,99365.38
2022-09-06T19:27:02.011Z,99360.63
2022-09-06T19:29:30.406Z,99358.22
2022-09-06T19:31:59.317Z,99349.06
2022-09-06T19:34:26.951Z,99352.16
2022-09-06T19:36:55.514Z,99355.69
2022-09-06T19:39:22.845Z,99356.81
2022-09-06T19:41:50.643Z,99360.69
2022-09-06T19:44:17.680Z,99355.50
2022-09-06T19:46:46.981Z,99343.09
2022-09-06T19:49:19.162Z,99360.91
2022-09-06T19:51:48.216Z,99348.59
2022-09-06T19:54:15.581Z,99355.22
2022-09-06T19:56:43.658Z,99349.22
2022-09-06T19:59:12.197Z,99346.81
2022-09-06T20:01:39.938Z,99344.38
2022-09-06T20:04:07.934Z,99344.69
2022-09-06T20:06:35.198Z,99333.56
2022-09-06T20:09:02.682Z,99339.09
2022-09-06T20:11:30.625Z,99344.56
2022-09-06T20:13:57.615Z,99325.75
2022-09-06T20:16:24.914Z,99340.06
2022-09-06T20:18:52.527Z,99349.91
2022-09-06T20:21:19.606Z,99342.72
2022-09-06T20:23:50.218Z,99339.91
2022-09-06T20:26:17.515Z,99342.63
2022-09-06T20:28:44.584Z,99338.59
2022-09-06T20:31:16.478Z,99338.97
2022-09-06T20:33:48.716Z,99337.31
2022-09-06T20:36:16.906Z,99329.72
2022-09-06T20:38:44.229Z,99330.47
2022-09-06T20:41:16.039Z,99330.00
2022-09-06T20:43:43.264Z,99327.91
2022-09-06T20:46:17.168Z,99316.38
2022-09-06T20:48:45.474Z,99329.72
2022-09-06T20:51:14.894Z,99333.19
2022-09-06T20:53:41.871Z,99329.56
2022-09-06T20:56:33.909Z,99328.31
2022-09-06T20:59:02.616Z,99339.69
2022-09-06T21:01:35.847Z,99336.00
2022-09-06T21:04:04.498Z,99327.91
2022-09-06T21:06:33.795Z,99346.19
2022-09-06T21:09:00.866Z,99344.16
2022-09-06T21:11:27.930Z,99344.91
2022-09-06T21:13:56.337Z,99331.34
2022-09-06T21:16:25.501Z,99342.00
2022-09-06T21:18:53.198Z,99337.59
2022-09-06T21:21:20.156Z,99334.75
2022-09-06T21:23:47.093Z,99345.72
2022-09-06T21:26:15.930Z,99340.94
2022-09-06T21:28:43.098Z,99337.34
2022-09-06T21:31:11.919Z,99339.22
2022-09-06T21:33:40.660Z,99318.44
2022-09-06T21:36:12.056Z,99332.78
2022-09-06T21:38:40.957Z,99331.06
2022-09-06T21:41:08.374Z,99324.25
2022-09-06T21:43:35.346Z,99319.84
2022-09-06T21:46:03.147Z,99320.13
2022-09-06T21:48:30.212Z,99309.78
2022-09-06T21:50:57.467Z,99307.75
2022-09-06T21:53:26.579Z,99306.50
2022-09-06T21:55:53.423Z,99297.00
2022-09-06T21:58:20.455Z,99291.03
2022-09-06T22:00:51.978Z,99296.13
2022-09-06T22:03:19.106Z,99294.09
2022-09-06T22:05:46.220Z,99293.22
2022-09-06T22:08:13.363Z,99291.19
2022-09-06T22:10:40.278Z,99282.84
2022-09-06T22:13:07.184Z,99282.78
2022-09-06T22:15:37.978Z,99289.81
2022-09-06T22:18:05.251Z,99288.13
2022-09-06T22:20:32.181Z,99287.28
2022-09-06T22:22:59.150Z,99289.13
2022-09-06T22:25:26.015Z,99302.03
2022-09-06T22:27:52.994Z,99299.53
2022-09-06T22:30:25.066Z,99287.41
2022-09-06T22:32:53.107Z,99280.25
2022-09-06T22:35:20.334Z,99286.53
2022-09-06T22:37:47.212Z,99303.59
2022-09-06T22:40:14.201Z,99307.84
2022-09-06T22:42:41.171Z,99306.59
2022-09-06T22:45:08.454Z,99315.25
2022-09-06T22:47:35.454Z,99314.34
2022-09-06T22:50:02.388Z,99316.66
2022-09-06T22:52:29.262Z,99312.22
2022-09-06T22:54:56.167Z,99312.94
2022-09-06T22:57:23.043Z,99307.38
2022-09-06T22:59:49.889Z,99314.38
2022-09-06T23:02:16.783Z,99312.34
2022-09-06T23:04:43.699Z,99319.34
2022-09-06T23:07:10.611Z,99318.09
2022-09-06T23:09:37.536Z,99312.16
2022-09-06T23:12:05.143Z,99305.78
2022-09-06T23:14:32.014Z,99298.94
2022-09-06T23:16:58.999Z,99308.78
2022-09-06T23:19:25.918Z,99306.75
2022-09-06T23:21:52.776Z,99305.16
2022-09-06T23:24:19.748Z,99303.13
2022-09-06T23:26:46.968Z,99302.63
2022-09-06T23:29:14.291Z,99291.56
2022-09-06T23:31:42.499Z,99295.81
2022-09-06T23:34:09.476Z,99289.84
2022-09-06T23:36:36.441Z,99287.47
2022-09-06T23:39:03.396Z,99283.47
2022-09-06T23:41:30.327Z,99263.06
2022-09-06T23:43:57.498Z,99283.38
2022-09-06T23:46:24.473Z,99288.44
2022-09-06T23:48:51.400Z,99281.69
2022-09-06T23:51:18.358Z,99280.44
2022-09-06T23:53:45.393Z,99279.56
2022-09-06T23:56:12.387Z,99284.69
2022-09-06T23:58:39.372Z,99280.72
